sensor_id;sensor_type;location;lat;lon;timestamp;temperature;humidity
30648;DHT22;17683;53.360;9.736;2023-01-31T00:00:04;4.20;99.90
30648;DHT22;17683;53.360;9.736;2023-01-31T00:02:32;4.10;99.90
30648;DHT22;17683;53.360;9.736;2023-01-31T00:04:58;4.10;99.90
30648;DHT22;17683;53.360;9.736;2023-01-31T00:07:25;4.20;99.90
30648;DHT22;17683;53.360;9.736;2023-01-31T00:09:50;4.10;99.90
30648;DHT22;17683;53.360;9.736;2023-01-31T00:12:16;4.10;99.90
30648;DHT22;17683;53.360;9.736;2023-01-31T00:14:42;4.20;99.90
30648;DHT22;17683;53.360;9.736;2023-01-31T00:17:08;4.20;99.90
30648;DHT22;17683;53.360;9.736;2023-01-31T00:19:33;4.20;99.90
30648;DHT22;17683;53.360;9.736;2023-01-31T00:21:59;4.20;99.90
30648;DHT22;17683;53.360;9.736;2023-01-31T00:24:25;4.10;99.90
30648;DHT22;17683;53.360;9.736;2023-01-31T00:26:50;4.20;99.90
30648;DHT22;17683;53.360;9.736;2023-01-31T00:29:24;4.20;99.90
30648;DHT22;17683;53.360;9.736;2023-01-31T00:31:51;4.20;99.90
30648;DHT22;17683;53.360;9.736;2023-01-31T00:34:16;4.20;99.90
30648;DHT22;17683;53.360;9.736;2023-01-31T00:36:42;4.20;99.90
30648;DHT22;17683;53.360;9.736;2023-01-31T00:39:09;4.10;99.90
30648;DHT22;17683;53.360;9.736;2023-01-31T00:41:37;4.10;99.90
30648;DHT22;17683;53.360;9.736;2023-01-31T00:44:03;4.10;99.90
30648;DHT22;17683;53.360;9.736;2023-01-31T00:46:29;4.10;99.90
30648;DHT22;17683;53.360;9.736;2023-01-31T00:48:56;4.00;99.90
30648;DHT22;17683;53.360;9.736;2023-01-31T00:51:23;4.00;99.90
30648;DHT22;17683;53.360;9.736;2023-01-31T00:53:49;3.90;99.90
30648;DHT22;17683;53.360;9.736;2023-01-31T00:56:18;3.90;99.90
30648;DHT22;17683;53.360;9.736;2023-01-31T00:58:44;3.90;99.90
30648;DHT22;17683;53.360;9.736;2023-01-31T01:01:36;3.90;99.90
30648;DHT22;17683;53.360;9.736;2023-01-31T01:04:02;3.80;99.90
30648;DHT22;17683;53.360;9.736;2023-01-31T01:06:28;3.80;99.90
30648;DHT22;17683;53.360;9.736;2023-01-31T01:08:55;3.80;99.90
30648;DHT22;17683;53.360;9.736;2023-01-31T01:11:39;3.80;99.90
30648;DHT22;17683;53.360;9.736;2023-01-31T01:14:05;3.80;99.90
30648;DHT22;17683;53.360;9.736;2023-01-31T01:16:34;3.80;99.90
30648;DHT22;17683;53.360;9.736;2023-01-31T01:19:01;3.80;99.90
30648;DHT22;17683;53.360;9.736;2023-01-31T01:21:29;3.80;99.90
30648;DHT22;17683;53.360;9.736;2023-01-31T01:23:57;3.80;99.90
30648;DHT22;17683;53.360;9.736;2023-01-31T01:26:26;3.90;99.90
30648;DHT22;17683;53.360;9.736;2023-01-31T01:28:53;3.90;99.90
30648;DHT22;17683;53.360;9.736;2023-01-31T01:31:21;4.00;99.90
30648;DHT22;17683;53.360;9.736;2023-01-31T01:33:48;4.00;99.90
30648;DHT22;17683;53.360;9.736;2023-01-31T01:36:15;4.00;99.90
30648;DHT22;17683;53.360;9.736;2023-01-31T01:38:43;4.00;99.90
30648;DHT22;17683;53.360;9.736;2023-01-31T01:41:10;4.00;99.90
30648;DHT22;17683;53.360;9.736;2023-01-31T01:46:27;4.10;99.90
30648;DHT22;17683;53.360;9.736;2023-01-31T01:51:43;4.10;99.90
30648;DHT22;17683;53.360;9.736;2023-01-31T01:54:15;4.20;99.90
30648;DHT22;17683;53.360;9.736;2023-01-31T01:56:47;4.20;99.90
30648;DHT22;17683;53.360;9.736;2023-01-31T01:59:28;4.20;99.90
30648;DHT22;17683;53.360;9.736;2023-01-31T02:01:56;4.20;99.90
30648;DHT22;17683;53.360;9.736;2023-01-31T02:04:25;4.10;99.90
30648;DHT22;17683;53.360;9.736;2023-01-31T02:06:53;4.10;99.90
30648;DHT22;17683;53.360;9.736;2023-01-31T02:09:50;4.10;99.90
30648;DHT22;17683;53.360;9.736;2023-01-31T02:12:18;4.00;99.90
30648;DHT22;17683;53.360;9.736;2023-01-31T02:14:45;4.00;99.90
30648;DHT22;17683;53.360;9.736;2023-01-31T02:17:15;4.00;99.90
30648;DHT22;17683;53.360;9.736;2023-01-31T02:20:12;4.00;99.90
30648;DHT22;17683;53.360;9.736;2023-01-31T02:34:24;4.10;99.90
30648;DHT22;17683;53.360;9.736;2023-01-31T02:36:59;4.00;99.90
30648;DHT22;17683;53.360;9.736;2023-01-31T02:42:20;3.90;99.90
30648;DHT22;17683;53.360;9.736;2023-01-31T02:45:06;4.00;99.90
30648;DHT22;17683;53.360;9.736;2023-01-31T02:50:31;4.00;99.90
30648;DHT22;17683;53.360;9.736;2023-01-31T02:53:11;4.00;99.90
30648;DHT22;17683;53.360;9.736;2023-01-31T02:56:01;4.00;99.90
30648;DHT22;17683;53.360;9.736;2023-01-31T03:01:19;4.00;99.90
30648;DHT22;17683;53.360;9.736;2023-01-31T03:03:48;4.00;99.90
30648;DHT22;17683;53.360;9.736;2023-01-31T03:08:54;3.90;99.90
30648;DHT22;17683;53.360;9.736;2023-01-31T03:11:24;3.90;99.90
30648;DHT22;17683;53.360;9.736;2023-01-31T03:14:39;3.90;99.90
30648;DHT22;17683;53.360;9.736;2023-01-31T03:17:01;3.90;99.90
30648;DHT22;17683;53.360;9.736;2023-01-31T03:19:59;3.80;99.90
30648;DHT22;17683;53.360;9.736;2023-01-31T03:22:30;3.80;99.90
30648;DHT22;17683;53.360;9.736;2023-01-31T03:24:58;3.80;99.90
30648;DHT22;17683;53.360;9.736;2023-01-31T03:27:24;3.90;99.90
30648;DHT22;17683;53.360;9.736;2023-01-31T03:29:54;3.80;99.90
30648;DHT22;17683;53.360;9.736;2023-01-31T03:32:29;3.90;99.90
30648;DHT22;17683;53.360;9.736;2023-01-31T03:34:55;3.90;99.90
30648;DHT22;17683;53.360;9.736;2023-01-31T03:37:34;3.90;99.90
30648;DHT22;17683;53.360;9.736;2023-01-31T03:40:24;3.90;99.90
30648;DHT22;17683;53.360;9.736;2023-01-31T03:47:48;4.00;99.90
30648;DHT22;17683;53.360;9.736;2023-01-31T03:50:28;4.00;99.90
30648;DHT22;17683;53.360;9.736;2023-01-31T03:53:21;4.00;99.90
30648;DHT22;17683;53.360;9.736;2023-01-31T03:55:56;4.10;99.90
30648;DHT22;17683;53.360;9.736;2023-01-31T03:58:27;4.10;99.90
30648;DHT22;17683;53.360;9.736;2023-01-31T04:00:54;4.10;99.90
30648;DHT22;17683;53.360;9.736;2023-01-31T04:03:42;4.00;99.90
30648;DHT22;17683;53.360;9.736;2023-01-31T04:06:09;4.10;99.90
30648;DHT22;17683;53.360;9.736;2023-01-31T04:08:36;4.00;99.90
30648;DHT22;17683;53.360;9.736;2023-01-31T04:11:09;4.00;99.90
30648;DHT22;17683;53.360;9.736;2023-01-31T04:13:35;4.00;99.90
30648;DHT22;17683;53.360;9.736;2023-01-31T04:16:01;4.10;99.90
30648;DHT22;17683;53.360;9.736;2023-01-31T04:18:27;4.10;99.90
30648;DHT22;17683;53.360;9.736;2023-01-31T04:20:53;4.00;99.90
30648;DHT22;17683;53.360;9.736;2023-01-31T04:23:20;4.10;99.90
30648;DHT22;17683;53.360;9.736;2023-01-31T04:25:46;4.00;99.90
30648;DHT22;17683;53.360;9.736;2023-01-31T04:28:12;4.00;99.90
30648;DHT22;17683;53.360;9.736;2023-01-31T04:30:38;4.00;99.90
30648;DHT22;17683;53.360;9.736;2023-01-31T04:33:03;4.00;99.90
30648;DHT22;17683;53.360;9.736;2023-01-31T04:35:29;4.00;99.90
30648;DHT22;17683;53.360;9.736;2023-01-31T04:37:55;4.00;99.90
30648;DHT22;17683;53.360;9.736;2023-01-31T04:40:20;4.10;99.90
30648;DHT22;17683;53.360;9.736;2023-01-31T04:42:46;4.10;99.90
30648;DHT22;17683;53.360;9.736;2023-01-31T04:45:14;4.10;99.90
30648;DHT22;17683;53.360;9.736;2023-01-31T04:47:40;4.10;99.90
30648;DHT22;17683;53.360;9.736;2023-01-31T04:50:06;4.10;99.90
30648;DHT22;17683;53.360;9.736;2023-01-31T04:52:32;4.00;99.90
30648;DHT22;17683;53.360;9.736;2023-01-31T04:54:57;4.10;99.90
30648;DHT22;17683;53.360;9.736;2023-01-31T04:57:23;4.10;99.90
30648;DHT22;17683;53.360;9.736;2023-01-31T04:59:49;4.10;99.90
30648;DHT22;17683;53.360;9.736;2023-01-31T05:02:16;4.10;99.90
30648;DHT22;17683;53.360;9.736;2023-01-31T05:04:42;4.10;99.90
30648;DHT22;17683;53.360;9.736;2023-01-31T05:07:08;4.10;99.90
30648;DHT22;17683;53.360;9.736;2023-01-31T05:09:34;4.10;99.90
30648;DHT22;17683;53.360;9.736;2023-01-31T05:11:59;4.10;99.90
30648;DHT22;17683;53.360;9.736;2023-01-31T05:14:25;4.20;99.90
30648;DHT22;17683;53.360;9.736;2023-01-31T05:16:51;4.10;99.90
30648;DHT22;17683;53.360;9.736;2023-01-31T05:19:17;4.20;99.90
30648;DHT22;17683;53.360;9.736;2023-01-31T05:21:43;4.20;99.90
30648;DHT22;17683;53.360;9.736;2023-01-31T05:24:28;4.30;99.90
30648;DHT22;17683;53.360;9.736;2023-01-31T05:26:55;4.20;99.90
30648;DHT22;17683;53.360;9.736;2023-01-31T05:29:32;4.20;99.90
30648;DHT22;17683;53.360;9.736;2023-01-31T05:32:00;4.20;99.90
30648;DHT22;17683;53.360;9.736;2023-01-31T05:34:26;4.20;99.90
30648;DHT22;17683;53.360;9.736;2023-01-31T05:36:55;4.20;99.90
30648;DHT22;17683;53.360;9.736;2023-01-31T05:39:21;4.20;99.90
30648;DHT22;17683;53.360;9.736;2023-01-31T05:41:46;4.20;99.90
30648;DHT22;17683;53.360;9.736;2023-01-31T05:44:12;4.30;99.90
30648;DHT22;17683;53.360;9.736;2023-01-31T05:46:39;4.20;99.90
30648;DHT22;17683;53.360;9.736;2023-01-31T05:49:05;4.20;99.90
30648;DHT22;17683;53.360;9.736;2023-01-31T05:51:30;4.20;99.90
30648;DHT22;17683;53.360;9.736;2023-01-31T05:53:56;4.20;99.90
30648;DHT22;17683;53.360;9.736;2023-01-31T05:56:22;4.20;99.90
30648;DHT22;17683;53.360;9.736;2023-01-31T05:58:49;4.20;99.90
30648;DHT22;17683;53.360;9.736;2023-01-31T06:01:20;4.20;99.90
30648;DHT22;17683;53.360;9.736;2023-01-31T06:03:46;4.20;99.90
30648;DHT22;17683;53.360;9.736;2023-01-31T06:06:11;4.20;99.90
30648;DHT22;17683;53.360;9.736;2023-01-31T06:08:37;4.20;99.90
30648;DHT22;17683;53.360;9.736;2023-01-31T06:11:04;4.20;99.90
30648;DHT22;17683;53.360;9.736;2023-01-31T06:13:31;4.20;99.90
30648;DHT22;17683;53.360;9.736;2023-01-31T06:15:56;4.20;99.90
30648;DHT22;17683;53.360;9.736;2023-01-31T06:18:22;4.20;99.90
30648;DHT22;17683;53.360;9.736;2023-01-31T06:20:48;4.20;99.90
30648;DHT22;17683;53.360;9.736;2023-01-31T06:23:14;4.20;99.90
30648;DHT22;17683;53.360;9.736;2023-01-31T06:25:40;4.20;99.90
30648;DHT22;17683;53.360;9.736;2023-01-31T06:28:05;4.20;99.90
30648;DHT22;17683;53.360;9.736;2023-01-31T06:30:31;4.20;99.90
30648;DHT22;17683;53.360;9.736;2023-01-31T06:33:00;4.20;99.90
30648;DHT22;17683;53.360;9.736;2023-01-31T06:35:26;4.20;99.90
30648;DHT22;17683;53.360;9.736;2023-01-31T06:37:54;4.20;99.90
30648;DHT22;17683;53.360;9.736;2023-01-31T06:40:19;4.30;99.90
30648;DHT22;17683;53.360;9.736;2023-01-31T06:42:45;4.20;99.90
30648;DHT22;17683;53.360;9.736;2023-01-31T06:45:11;4.30;99.90
30648;DHT22;17683;53.360;9.736;2023-01-31T06:47:37;4.30;99.90
30648;DHT22;17683;53.360;9.736;2023-01-31T06:50:03;4.20;99.90
30648;DHT22;17683;53.360;9.736;2023-01-31T06:52:29;4.20;99.90
30648;DHT22;17683;53.360;9.736;2023-01-31T06:54:54;4.30;99.90
30648;DHT22;17683;53.360;9.736;2023-01-31T06:57:20;4.30;99.90
30648;DHT22;17683;53.360;9.736;2023-01-31T06:59:46;4.20;99.90
30648;DHT22;17683;53.360;9.736;2023-01-31T07:02:12;4.30;99.90
30648;DHT22;17683;53.360;9.736;2023-01-31T07:04:37;4.30;99.90
30648;DHT22;17683;53.360;9.736;2023-01-31T07:07:03;4.30;99.90
30648;DHT22;17683;53.360;9.736;2023-01-31T07:09:29;4.30;99.90
30648;DHT22;17683;53.360;9.736;2023-01-31T07:11:55;4.30;99.90
30648;DHT22;17683;53.360;9.736;2023-01-31T07:14:20;4.30;99.90
30648;DHT22;17683;53.360;9.736;2023-01-31T07:16:46;4.30;99.90
30648;DHT22;17683;53.360;9.736;2023-01-31T07:19:12;4.30;99.90
30648;DHT22;17683;53.360;9.736;2023-01-31T07:21:38;4.30;99.90
30648;DHT22;17683;53.360;9.736;2023-01-31T07:24:03;4.30;99.90
30648;DHT22;17683;53.360;9.736;2023-01-31T07:26:29;4.40;99.90
30648;DHT22;17683;53.360;9.736;2023-01-31T07:28:55;4.40;99.90
30648;DHT22;17683;53.360;9.736;2023-01-31T07:31:21;4.40;99.90
30648;DHT22;17683;53.360;9.736;2023-01-31T07:33:46;4.40;99.90
30648;DHT22;17683;53.360;9.736;2023-01-31T07:36:14;4.40;99.90
30648;DHT22;17683;53.360;9.736;2023-01-31T07:38:41;4.40;99.90
30648;DHT22;17683;53.360;9.736;2023-01-31T07:41:08;4.40;99.90
30648;DHT22;17683;53.360;9.736;2023-01-31T07:43:35;4.40;99.90
30648;DHT22;17683;53.360;9.736;2023-01-31T07:46:00;4.40;99.90
30648;DHT22;17683;53.360;9.736;2023-01-31T07:48:26;4.40;99.90
30648;DHT22;17683;53.360;9.736;2023-01-31T07:51:00;4.40;99.90
30648;DHT22;17683;53.360;9.736;2023-01-31T07:53:31;4.50;99.90
30648;DHT22;17683;53.360;9.736;2023-01-31T07:56:16;4.50;99.90
30648;DHT22;17683;53.360;9.736;2023-01-31T07:58:43;4.50;99.90
30648;DHT22;17683;53.360;9.736;2023-01-31T08:01:21;4.50;99.90
30648;DHT22;17683;53.360;9.736;2023-01-31T08:04:08;4.50;99.90
30648;DHT22;17683;53.360;9.736;2023-01-31T08:06:34;4.50;99.90
30648;DHT22;17683;53.360;9.736;2023-01-31T08:09:00;4.50;99.90
30648;DHT22;17683;53.360;9.736;2023-01-31T08:11:25;4.50;99.90
30648;DHT22;17683;53.360;9.736;2023-01-31T08:13:51;4.50;99.90
30648;DHT22;17683;53.360;9.736;2023-01-31T08:16:18;4.50;99.90
30648;DHT22;17683;53.360;9.736;2023-01-31T08:18:46;4.60;99.90
30648;DHT22;17683;53.360;9.736;2023-01-31T08:21:13;4.60;99.90
30648;DHT22;17683;53.360;9.736;2023-01-31T08:23:39;4.60;99.90
30648;DHT22;17683;53.360;9.736;2023-01-31T08:26:08;4.60;99.90
30648;DHT22;17683;53.360;9.736;2023-01-31T08:28:36;4.70;99.90
30648;DHT22;17683;53.360;9.736;2023-01-31T08:31:02;4.80;99.90
30648;DHT22;17683;53.360;9.736;2023-01-31T08:33:28;4.70;99.90
30648;DHT22;17683;53.360;9.736;2023-01-31T08:35:54;4.80;99.90
30648;DHT22;17683;53.360;9.736;2023-01-31T08:38:20;4.80;99.90
30648;DHT22;17683;53.360;9.736;2023-01-31T08:40:46;4.80;99.90
30648;DHT22;17683;53.360;9.736;2023-01-31T08:43:12;4.90;99.90
30648;DHT22;17683;53.360;9.736;2023-01-31T08:45:37;4.90;99.90
30648;DHT22;17683;53.360;9.736;2023-01-31T08:48:03;4.90;99.90
30648;DHT22;17683;53.360;9.736;2023-01-31T08:50:30;4.90;99.90
30648;DHT22;17683;53.360;9.736;2023-01-31T08:53:02;4.90;99.90
30648;DHT22;17683;53.360;9.736;2023-01-31T08:55:29;4.90;99.90
30648;DHT22;17683;53.360;9.736;2023-01-31T08:57:56;5.00;99.90
30648;DHT22;17683;53.360;9.736;2023-01-31T09:00:22;5.00;99.90
30648;DHT22;17683;53.360;9.736;2023-01-31T09:02:56;5.00;99.90
30648;DHT22;17683;53.360;9.736;2023-01-31T09:05:23;5.00;99.90
30648;DHT22;17683;53.360;9.736;2023-01-31T09:07:49;5.00;99.90
30648;DHT22;17683;53.360;9.736;2023-01-31T09:10:17;5.00;99.90
30648;DHT22;17683;53.360;9.736;2023-01-31T09:12:42;5.00;99.90
30648;DHT22;17683;53.360;9.736;2023-01-31T09:15:08;5.00;99.90
30648;DHT22;17683;53.360;9.736;2023-01-31T09:17:34;5.10;99.90
30648;DHT22;17683;53.360;9.736;2023-01-31T09:20:00;5.10;99.90
30648;DHT22;17683;53.360;9.736;2023-01-31T09:22:31;5.00;99.90
30648;DHT22;17683;53.360;9.736;2023-01-31T09:24:58;5.00;99.90
30648;DHT22;17683;53.360;9.736;2023-01-31T09:27:23;5.10;99.90
30648;DHT22;17683;53.360;9.736;2023-01-31T09:29:49;5.10;99.90
30648;DHT22;17683;53.360;9.736;2023-01-31T09:32:15;5.00;99.90
30648;DHT22;17683;53.360;9.736;2023-01-31T09:34:40;5.00;99.90
30648;DHT22;17683;53.360;9.736;2023-01-31T09:37:06;5.00;99.90
30648;DHT22;17683;53.360;9.736;2023-01-31T09:39:32;5.00;99.90
30648;DHT22;17683;53.360;9.736;2023-01-31T09:42:21;5.00;99.90
30648;DHT22;17683;53.360;9.736;2023-01-31T09:44:57;5.00;99.90
30648;DHT22;17683;53.360;9.736;2023-01-31T09:47:25;5.00;99.90
30648;DHT22;17683;53.360;9.736;2023-01-31T09:49:57;5.10;99.90
30648;DHT22;17683;53.360;9.736;2023-01-31T09:52:25;5.10;99.90
30648;DHT22;17683;53.360;9.736;2023-01-31T09:54:52;5.10;99.90
30648;DHT22;17683;53.360;9.736;2023-01-31T10:00:21;5.10;99.90
30648;DHT22;17683;53.360;9.736;2023-01-31T10:06:02;5.20;99.90
30648;DHT22;17683;53.360;9.736;2023-01-31T10:08:57;5.10;99.90
30648;DHT22;17683;53.360;9.736;2023-01-31T10:11:35;5.10;99.90
30648;DHT22;17683;53.360;9.736;2023-01-31T10:19:56;5.20;99.90
30648;DHT22;17683;53.360;9.736;2023-01-31T10:22:36;5.20;99.90
30648;DHT22;17683;53.360;9.736;2023-01-31T10:25:27;5.20;99.90
30648;DHT22;17683;53.360;9.736;2023-01-31T10:28:01;5.20;99.90
30648;DHT22;17683;53.360;9.736;2023-01-31T10:47:23;5.30;99.90
30648;DHT22;17683;53.360;9.736;2023-01-31T10:49:49;5.30;99.90
30648;DHT22;17683;53.360;9.736;2023-01-31T10:57:52;5.40;99.90
30648;DHT22;17683;53.360;9.736;2023-01-31T11:00:22;5.40;99.90
30648;DHT22;17683;53.360;9.736;2023-01-31T11:02:49;5.40;99.90
30648;DHT22;17683;53.360;9.736;2023-01-31T11:05:18;5.50;99.90
30648;DHT22;17683;53.360;9.736;2023-01-31T11:07:45;5.50;99.90
30648;DHT22;17683;53.360;9.736;2023-01-31T11:10:26;5.50;99.90
30648;DHT22;17683;53.360;9.736;2023-01-31T11:12:56;5.50;99.90
30648;DHT22;17683;53.360;9.736;2023-01-31T11:15:27;5.60;99.90
30648;DHT22;17683;53.360;9.736;2023-01-31T11:17:58;5.60;99.90
30648;DHT22;17683;53.360;9.736;2023-01-31T11:20:38;5.60;99.90
30648;DHT22;17683;53.360;9.736;2023-01-31T11:23:22;5.60;99.90
30648;DHT22;17683;53.360;9.736;2023-01-31T11:25:50;5.70;99.90
30648;DHT22;17683;53.360;9.736;2023-01-31T11:30:58;5.60;99.90
30648;DHT22;17683;53.360;9.736;2023-01-31T11:33:45;5.70;99.90
30648;DHT22;17683;53.360;9.736;2023-01-31T11:36:19;5.70;99.90
30648;DHT22;17683;53.360;9.736;2023-01-31T11:38:51;5.70;99.90
30648;DHT22;17683;53.360;9.736;2023-01-31T11:44:06;5.70;99.90
30648;DHT22;17683;53.360;9.736;2023-01-31T11:46:43;5.80;99.90
30648;DHT22;17683;53.360;9.736;2023-01-31T11:49:33;5.70;99.90
30648;DHT22;17683;53.360;9.736;2023-01-31T11:52:20;5.80;99.90
30648;DHT22;17683;53.360;9.736;2023-01-31T11:55:04;5.80;99.90
30648;DHT22;17683;53.360;9.736;2023-01-31T11:57:35;5.90;99.90
30648;DHT22;17683;53.360;9.736;2023-01-31T12:00:07;5.90;99.90
30648;DHT22;17683;53.360;9.736;2023-01-31T12:02:42;6.00;99.90
30648;DHT22;17683;53.360;9.736;2023-01-31T12:05:14;6.00;99.90
30648;DHT22;17683;53.360;9.736;2023-01-31T12:07:49;6.00;99.90
30648;DHT22;17683;53.360;9.736;2023-01-31T12:10:40;6.00;99.90
30648;DHT22;17683;53.360;9.736;2023-01-31T12:13:20;6.00;99.90
30648;DHT22;17683;53.360;9.736;2023-01-31T12:15:59;6.10;99.90
30648;DHT22;17683;53.360;9.736;2023-01-31T12:21:05;6.10;99.90
30648;DHT22;17683;53.360;9.736;2023-01-31T12:32:42;6.20;99.90
30648;DHT22;17683;53.360;9.736;2023-01-31T13:00:33;6.40;99.90
30648;DHT22;17683;53.360;9.736;2023-01-31T13:03:37;6.50;99.90
30648;DHT22;17683;53.360;9.736;2023-01-31T13:06:37;6.50;99.90
30648;DHT22;17683;53.360;9.736;2023-01-31T13:14:25;6.60;99.90
30648;DHT22;17683;53.360;9.736;2023-01-31T13:16:55;6.60;99.90
30648;DHT22;17683;53.360;9.736;2023-01-31T13:21:58;6.60;99.90
30648;DHT22;17683;53.360;9.736;2023-01-31T13:24:32;6.60;99.90
30648;DHT22;17683;53.360;9.736;2023-01-31T13:27:26;6.60;99.90
30648;DHT22;17683;53.360;9.736;2023-01-31T13:30:00;6.60;99.90
30648;DHT22;17683;53.360;9.736;2023-01-31T13:35:34;6.60;99.90
30648;DHT22;17683;53.360;9.736;2023-01-31T13:38:14;6.60;99.90
30648;DHT22;17683;53.360;9.736;2023-01-31T13:40:48;6.70;99.90
30648;DHT22;17683;53.360;9.736;2023-01-31T13:43:15;6.70;99.90
30648;DHT22;17683;53.360;9.736;2023-01-31T13:46:01;6.70;99.90
30648;DHT22;17683;53.360;9.736;2023-01-31T13:48:56;6.70;99.90
30648;DHT22;17683;53.360;9.736;2023-01-31T13:51:32;6.70;99.90
30648;DHT22;17683;53.360;9.736;2023-01-31T13:54:32;6.70;99.90
30648;DHT22;17683;53.360;9.736;2023-01-31T13:57:00;6.70;99.90
30648;DHT22;17683;53.360;9.736;2023-01-31T13:59:30;6.70;99.90
30648;DHT22;17683;53.360;9.736;2023-01-31T14:01:59;6.70;99.90
30648;DHT22;17683;53.360;9.736;2023-01-31T14:04:29;6.70;99.90
30648;DHT22;17683;53.360;9.736;2023-01-31T14:22:17;6.70;99.90
30648;DHT22;17683;53.360;9.736;2023-01-31T14:27:26;6.80;99.90
30648;DHT22;17683;53.360;9.736;2023-01-31T14:32:48;6.70;99.90
30648;DHT22;17683;53.360;9.736;2023-01-31T14:38:16;6.70;99.90
30648;DHT22;17683;53.360;9.736;2023-01-31T14:43:44;6.80;99.90
30648;DHT22;17683;53.360;9.736;2023-01-31T15:05:02;6.90;99.90
30648;DHT22;17683;53.360;9.736;2023-01-31T15:07:29;6.90;99.90
30648;DHT22;17683;53.360;9.736;2023-01-31T15:09:56;6.90;99.90
30648;DHT22;17683;53.360;9.736;2023-01-31T15:12:54;6.90;99.90
30648;DHT22;17683;53.360;9.736;2023-01-31T15:15:40;6.90;99.90
30648;DHT22;17683;53.360;9.736;2023-01-31T15:18:19;6.90;99.90
30648;DHT22;17683;53.360;9.736;2023-01-31T15:20:51;7.00;99.90
30648;DHT22;17683;53.360;9.736;2023-01-31T15:23:28;6.90;99.90
30648;DHT22;17683;53.360;9.736;2023-01-31T15:25:55;6.90;99.90
30648;DHT22;17683;53.360;9.736;2023-01-31T15:28:29;7.00;99.90
30648;DHT22;17683;53.360;9.736;2023-01-31T15:31:00;7.00;99.90
30648;DHT22;17683;53.360;9.736;2023-01-31T15:33:39;7.00;99.90
30648;DHT22;17683;53.360;9.736;2023-01-31T15:36:08;7.00;99.90
30648;DHT22;17683;53.360;9.736;2023-01-31T15:38:55;7.00;99.90
30648;DHT22;17683;53.360;9.736;2023-01-31T15:41:50;7.00;99.90
30648;DHT22;17683;53.360;9.736;2023-01-31T15:44:18;7.00;99.90
30648;DHT22;17683;53.360;9.736;2023-01-31T15:46:52;7.00;99.90
30648;DHT22;17683;53.360;9.736;2023-01-31T15:54:33;7.00;99.90
30648;DHT22;17683;53.360;9.736;2023-01-31T15:57:00;7.00;99.90
30648;DHT22;17683;53.360;9.736;2023-01-31T15:59:28;7.00;99.90
30648;DHT22;17683;53.360;9.736;2023-01-31T16:02:00;7.00;99.90
30648;DHT22;17683;53.360;9.736;2023-01-31T16:04:27;7.00;99.90
30648;DHT22;17683;53.360;9.736;2023-01-31T16:06:54;7.00;99.90
30648;DHT22;17683;53.360;9.736;2023-01-31T16:09:33;7.00;99.90
30648;DHT22;17683;53.360;9.736;2023-01-31T16:12:01;7.00;99.90
30648;DHT22;17683;53.360;9.736;2023-01-31T16:14:27;7.00;99.90
30648;DHT22;17683;53.360;9.736;2023-01-31T16:16:56;7.10;99.90
30648;DHT22;17683;53.360;9.736;2023-01-31T16:19:25;7.00;99.90
30648;DHT22;17683;53.360;9.736;2023-01-31T16:21:53;7.00;99.90
30648;DHT22;17683;53.360;9.736;2023-01-31T16:24:21;7.00;99.90
30648;DHT22;17683;53.360;9.736;2023-01-31T16:29:18;7.00;99.90
30648;DHT22;17683;53.360;9.736;2023-01-31T16:31:48;7.00;99.90
30648;DHT22;17683;53.360;9.736;2023-01-31T16:34:27;7.00;99.90
30648;DHT22;17683;53.360;9.736;2023-01-31T16:37:00;7.00;99.90
30648;DHT22;17683;53.360;9.736;2023-01-31T16:39:42;7.00;99.90
30648;DHT22;17683;53.360;9.736;2023-01-31T16:44:44;7.00;99.90
30648;DHT22;17683;53.360;9.736;2023-01-31T16:52:43;6.80;99.90
30648;DHT22;17683;53.360;9.736;2023-01-31T16:55:19;6.80;99.90
30648;DHT22;17683;53.360;9.736;2023-01-31T16:57:46;6.80;99.90
30648;DHT22;17683;53.360;9.736;2023-01-31T17:00:35;6.80;99.90
30648;DHT22;17683;53.360;9.736;2023-01-31T17:03:02;6.80;99.90
30648;DHT22;17683;53.360;9.736;2023-01-31T17:05:41;6.80;99.90
30648;DHT22;17683;53.360;9.736;2023-01-31T17:08:18;6.80;99.90
30648;DHT22;17683;53.360;9.736;2023-01-31T17:10:45;6.80;99.90
30648;DHT22;17683;53.360;9.736;2023-01-31T17:13:19;6.70;99.90
30648;DHT22;17683;53.360;9.736;2023-01-31T17:15:46;6.70;99.90
30648;DHT22;17683;53.360;9.736;2023-01-31T17:18:12;6.70;99.90
30648;DHT22;17683;53.360;9.736;2023-01-31T17:20:45;6.70;99.90
30648;DHT22;17683;53.360;9.736;2023-01-31T17:23:13;6.70;99.90
30648;DHT22;17683;53.360;9.736;2023-01-31T17:25:40;6.70;99.90
30648;DHT22;17683;53.360;9.736;2023-01-31T17:28:07;6.70;99.90
30648;DHT22;17683;53.360;9.736;2023-01-31T17:30:33;6.70;99.90
30648;DHT22;17683;53.360;9.736;2023-01-31T17:33:02;6.60;99.90
30648;DHT22;17683;53.360;9.736;2023-01-31T17:35:36;6.60;99.90
30648;DHT22;17683;53.360;9.736;2023-01-31T17:38:03;6.60;99.90
30648;DHT22;17683;53.360;9.736;2023-01-31T17:40:29;6.60;99.90
30648;DHT22;17683;53.360;9.736;2023-01-31T17:43:00;6.60;99.90
30648;DHT22;17683;53.360;9.736;2023-01-31T17:45:27;6.60;99.90
30648;DHT22;17683;53.360;9.736;2023-01-31T17:47:53;6.60;99.90
30648;DHT22;17683;53.360;9.736;2023-01-31T17:50:24;6.50;99.90
30648;DHT22;17683;53.360;9.736;2023-01-31T17:52:51;6.50;99.90
30648;DHT22;17683;53.360;9.736;2023-01-31T17:55:18;6.50;99.90
30648;DHT22;17683;53.360;9.736;2023-01-31T17:57:45;6.50;99.90
30648;DHT22;17683;53.360;9.736;2023-01-31T18:00:12;6.40;99.90
30648;DHT22;17683;53.360;9.736;2023-01-31T18:02:39;6.40;99.90
30648;DHT22;17683;53.360;9.736;2023-01-31T18:05:10;6.40;99.90
30648;DHT22;17683;53.360;9.736;2023-01-31T18:07:36;6.40;99.90
30648;DHT22;17683;53.360;9.736;2023-01-31T18:10:04;6.40;99.90
30648;DHT22;17683;53.360;9.736;2023-01-31T18:12:31;6.40;99.90
30648;DHT22;17683;53.360;9.736;2023-01-31T18:14:58;6.40;99.90
30648;DHT22;17683;53.360;9.736;2023-01-31T18:17:24;6.30;99.90
30648;DHT22;17683;53.360;9.736;2023-01-31T18:19:50;6.30;99.90
30648;DHT22;17683;53.360;9.736;2023-01-31T18:22:15;6.30;99.90
30648;DHT22;17683;53.360;9.736;2023-01-31T18:24:44;6.20;99.90
30648;DHT22;17683;53.360;9.736;2023-01-31T18:27:11;6.20;99.90
30648;DHT22;17683;53.360;9.736;2023-01-31T18:29:37;6.20;99.90
30648;DHT22;17683;53.360;9.736;2023-01-31T18:32:03;6.20;99.90
30648;DHT22;17683;53.360;9.736;2023-01-31T18:34:31;6.20;99.90
30648;DHT22;17683;53.360;9.736;2023-01-31T18:36:58;6.10;99.90
30648;DHT22;17683;53.360;9.736;2023-01-31T18:39:24;6.10;99.90
30648;DHT22;17683;53.360;9.736;2023-01-31T18:41:50;6.10;99.90
30648;DHT22;17683;53.360;9.736;2023-01-31T18:44:17;6.10;99.90
30648;DHT22;17683;53.360;9.736;2023-01-31T18:46:43;6.10;99.90
30648;DHT22;17683;53.360;9.736;2023-01-31T18:49:09;6.10;99.90
30648;DHT22;17683;53.360;9.736;2023-01-31T18:51:35;6.10;99.90
30648;DHT22;17683;53.360;9.736;2023-01-31T18:54:00;6.10;99.90
30648;DHT22;17683;53.360;9.736;2023-01-31T18:56:26;6.10;99.90
30648;DHT22;17683;53.360;9.736;2023-01-31T18:58:52;6.10;99.90
30648;DHT22;17683;53.360;9.736;2023-01-31T19:01:24;6.10;99.90
30648;DHT22;17683;53.360;9.736;2023-01-31T19:03:52;6.10;99.90
30648;DHT22;17683;53.360;9.736;2023-01-31T19:06:23;6.10;99.90